createdAt,value
2022-08-07T00:01:44.704Z,2.65
2022-08-07T00:04:06.772Z,2.58
2022-08-07T00:06:36.933Z,2.30
2022-08-07T00:09:16.684Z,2.60
2022-08-07T00:14:25.569Z,2.70
2022-08-07T00:17:02.174Z,2.72
2022-08-07T00:20:01.649Z,2.83
2022-08-07T00:22:24.649Z,2.87
2022-08-07T00:25:05.189Z,2.80
2022-08-07T00:27:51.791Z,2.75
2022-08-07T00:30:26.300Z,2.85
2022-08-07T00:32:58.905Z,2.92
2022-08-07T00:35:27.536Z,2.75
2022-08-07T00:37:58.653Z,2.90
2022-08-07T00:40:39.940Z,2.78
2022-08-07T00:43:12.819Z,2.85
2022-08-07T00:45:58.334Z,2.92
2022-08-07T00:48:32.232Z,2.80
2022-08-07T00:51:00.559Z,2.42
2022-08-07T00:53:38.493Z,2.60
2022-08-07T00:56:15.879Z,2.60
2022-08-07T00:58:46.798Z,3.05
2022-08-07T01:01:18.329Z,2.90
2022-08-07T01:03:56.734Z,3.12
2022-08-07T01:06:30.489Z,3.33
2022-08-07T01:09:03.133Z,2.80
2022-08-07T01:12:23.406Z,3.03
2022-08-07T01:14:21.270Z,2.75
2022-08-07T01:16:55.962Z,2.80
2022-08-07T01:19:23.677Z,3.40
2022-08-07T01:21:53.387Z,3.20
2022-08-07T01:24:23.482Z,3.10
2022-08-07T01:26:52.425Z,3.17
2022-08-07T01:29:27.900Z,2.90
2022-08-07T01:31:56.073Z,3.45
2022-08-07T01:34:31.610Z,2.97
2022-08-07T01:37:00.600Z,3.28
2022-08-07T01:39:41.429Z,3.12
2022-08-07T01:42:39.810Z,3.25
2022-08-07T01:45:05.436Z,2.72
2022-08-07T01:48:20.741Z,3.30
2022-08-07T01:50:31.464Z,3.17
2022-08-07T01:53:00.490Z,3.45
2022-08-07T01:55:34.935Z,3.12
2022-08-07T02:01:09.316Z,2.95
2022-08-07T02:03:48.766Z,3.10
2022-08-07T02:06:31.604Z,3.15
2022-08-07T02:09:04.272Z,2.90
2022-08-07T02:12:02.956Z,2.97
2022-08-07T02:14:40.321Z,3.42
2022-08-07T02:17:11.005Z,4.32
2022-08-07T02:20:06.650Z,5.15
2022-08-07T02:22:30.376Z,3.50
2022-08-07T02:24:58.977Z,3.17
2022-08-07T02:27:34.441Z,2.92
2022-08-07T02:30:07.416Z,3.33
2022-08-07T02:32:39.604Z,3.47
2022-08-07T02:36:29.538Z,3.20
2022-08-07T02:38:15.625Z,3.33
2022-08-07T02:40:44.532Z,3.45
2022-08-07T02:43:15.740Z,3.40
2022-08-07T02:45:58.028Z,3.17
2022-08-07T02:48:27.075Z,3.35
2022-08-07T02:50:57.733Z,3.58
2022-08-07T02:53:29.458Z,3.42
2022-08-07T02:56:03.352Z,3.20
2022-08-07T02:58:34.159Z,3.37
2022-08-07T03:01:03.286Z,3.28
2022-08-07T03:03:49.156Z,3.70
2022-08-07T03:06:25.813Z,3.60
2022-08-07T03:09:02.641Z,3.22
2022-08-07T03:11:32.989Z,3.72
2022-08-07T03:14:07.067Z,3.47
2022-08-07T03:16:35.687Z,3.33
2022-08-07T03:19:03.207Z,3.22
2022-08-07T03:21:33.169Z,3.28
2022-08-07T03:24:17.833Z,4.55
2022-08-07T03:26:58.358Z,4.70
2022-08-07T03:29:36.747Z,5.53
2022-08-07T03:32:13.113Z,4.30
2022-08-07T03:34:47.155Z,4.40
2022-08-07T03:37:46.470Z,4.28
2022-08-07T03:40:22.212Z,4.37
2022-08-07T03:42:51.151Z,4.22
2022-08-07T03:45:29.838Z,4.37
2022-08-07T03:48:00.419Z,4.28
2022-08-07T03:50:29.005Z,4.37
2022-08-07T03:52:59.766Z,4.25
2022-08-07T03:55:57.742Z,4.43
2022-08-07T03:59:05.452Z,4.68
2022-08-07T04:01:07.602Z,4.55
2022-08-07T04:03:53.265Z,4.43
2022-08-07T04:06:38.067Z,4.20
2022-08-07T04:09:15.329Z,4.43
2022-08-07T04:12:24.346Z,4.37
2022-08-07T04:14:37.877Z,4.10
2022-08-07T04:18:11.223Z,4.15
2022-08-07T04:19:55.274Z,4.18
2022-08-07T04:22:29.163Z,4.35
2022-08-07T04:27:26.709Z,3.75
2022-08-07T04:29:58.862Z,3.95
2022-08-07T04:32:34.314Z,3.95
2022-08-07T04:35:05.778Z,3.92
2022-08-07T04:38:00.823Z,4.12
2022-08-07T04:40:26.720Z,4.07
2022-08-07T04:43:01.963Z,4.28
2022-08-07T04:45:57.406Z,4.70
2022-08-07T04:48:57.744Z,4.60
2022-08-07T04:51:37.567Z,4.50
2022-08-07T04:54:30.181Z,4.85
2022-08-07T04:58:15.219Z,4.82
2022-08-07T05:00:12.490Z,4.60
2022-08-07T05:02:55.591Z,3.97
2022-08-07T05:05:52.561Z,4.12
2022-08-07T05:08:59.915Z,3.87
2022-08-07T05:11:58.806Z,3.90
2022-08-07T05:14:55.214Z,3.90
2022-08-07T05:17:51.775Z,3.65
2022-08-07T05:20:09.211Z,3.42
2022-08-07T05:22:38.461Z,4.00
2022-08-07T05:25:11.847Z,4.07
2022-08-07T05:28:03.576Z,4.07
2022-08-07T05:30:42.787Z,4.37
2022-08-07T05:33:11.906Z,4.57
2022-08-07T05:35:42.176Z,3.90
2022-08-07T05:38:10.856Z,4.45
2022-08-07T05:40:50.426Z,4.72
2022-08-07T05:43:49.851Z,4.37
2022-08-07T05:46:08.005Z,4.80
2022-08-07T05:48:35.634Z,5.75
2022-08-07T05:51:23.359Z,4.93
2022-08-07T05:54:12.341Z,4.82
2022-08-07T05:56:40.470Z,4.47
2022-08-07T05:59:13.930Z,4.85
2022-08-07T06:01:42.272Z,4.60
2022-08-07T06:04:10.840Z,4.70
2022-08-07T06:06:38.891Z,4.65
2022-08-07T06:09:15.469Z,4.57
2022-08-07T06:11:44.565Z,4.68
2022-08-07T06:14:21.012Z,4.90
2022-08-07T06:16:50.438Z,4.53
2022-08-07T06:19:51.752Z,4.60
2022-08-07T06:22:22.865Z,5.30
2022-08-07T06:24:57.930Z,4.50
2022-08-07T06:28:00.456Z,4.53
2022-08-07T06:30:32.249Z,4.20
2022-08-07T06:33:02.306Z,4.12
2022-08-07T06:35:38.996Z,4.30
2022-08-07T06:38:20.642Z,3.92
2022-08-07T06:40:53.365Z,4.07
2022-08-07T06:43:23.782Z,4.07
2022-08-07T06:46:00.098Z,3.92
2022-08-07T06:48:28.785Z,3.90
2022-08-07T06:50:59.473Z,3.75
2022-08-07T06:55:30.202Z,2.87
2022-08-07T06:56:49.809Z,2.72
2022-08-07T07:00:13.373Z,2.55
2022-08-07T07:02:48.596Z,2.60
2022-08-07T07:05:06.710Z,2.70
2022-08-07T07:07:59.441Z,2.47
2022-08-07T07:10:29.199Z,2.62
2022-08-07T07:13:13.179Z,2.67
2022-08-07T07:15:51.751Z,3.10
2022-08-07T07:18:47.023Z,2.75
2022-08-07T07:21:27.195Z,3.20
2022-08-07T07:24:17.313Z,2.45
2022-08-07T07:26:51.653Z,3.47
2022-08-07T07:29:38.896Z,2.85
2022-08-07T07:32:12.477Z,2.90
2022-08-07T07:34:46.089Z,2.80
2022-08-07T07:37:45.438Z,2.90
2022-08-07T07:40:14.972Z,3.30
2022-08-07T07:42:54.179Z,2.83
2022-08-07T07:46:37.765Z,3.10
2022-08-07T07:48:34.746Z,3.12
2022-08-07T07:51:07.969Z,2.85
2022-08-07T07:53:51.899Z,2.40
2022-08-07T07:56:29.928Z,2.55
2022-08-07T07:59:03.568Z,2.87
2022-08-07T08:02:03.513Z,2.55
2022-08-07T08:04:25.508Z,2.22
2022-08-07T08:06:53.499Z,1.80
2022-08-07T08:09:23.401Z,2.25
2022-08-07T08:12:02.413Z,1.98
2022-08-07T08:14:36.083Z,1.92
2022-08-07T08:17:14.209Z,1.62
2022-08-07T08:20:18.169Z,2.00
2022-08-07T08:23:08.173Z,2.00
2022-08-07T08:25:56.227Z,2.00
2022-08-07T08:28:37.768Z,1.92
2022-08-07T08:31:15.579Z,1.98
2022-08-07T08:33:49.836Z,2.25
2022-08-07T08:36:29.694Z,2.17
2022-08-07T08:39:01.707Z,1.92
2022-08-07T08:41:57.819Z,1.90
2022-08-07T08:44:44.552Z,1.92
2022-08-07T08:47:47.446Z,1.80
2022-08-07T08:50:35.250Z,2.37
2022-08-07T08:53:14.544Z,2.90
2022-08-07T08:55:55.047Z,3.15
2022-08-07T08:58:29.489Z,2.97
2022-08-07T09:01:15.402Z,3.00
2022-08-07T09:04:07.896Z,2.90
2022-08-07T09:07:02.376Z,2.53
2022-08-07T09:09:56.813Z,2.15
2022-08-07T09:12:54.436Z,1.98
2022-08-07T09:16:23.195Z,1.83
2022-08-07T09:18:35.149Z,1.80
2022-08-07T09:21:06.189Z,1.70
2022-08-07T09:24:30.452Z,1.62
2022-08-07T09:27:09.191Z,1.90
2022-08-07T09:30:03.834Z,1.98
2022-08-07T09:32:49.148Z,1.75
2022-08-07T09:36:03.281Z,1.60
2022-08-07T09:38:43.806Z,1.80
2022-08-07T09:44:40.238Z,1.80
2022-08-07T09:47:56.088Z,1.95
2022-08-07T09:50:45.375Z,1.80
2022-08-07T09:53:14.908Z,2.00
2022-08-07T09:56:03.341Z,1.77
2022-08-07T09:59:01.548Z,1.85
2022-08-07T10:01:52.185Z,1.70
2022-08-07T10:04:52.804Z,1.85
2022-08-07T10:07:52.434Z,1.45
2022-08-07T10:10:28.570Z,1.70
2022-08-07T10:13:55.486Z,2.00
2022-08-07T10:16:12.335Z,1.67
2022-08-07T10:18:57.891Z,1.98
2022-08-07T10:22:14.198Z,1.83
2022-08-07T10:24:33.467Z,1.58
2022-08-07T10:27:46.461Z,2.25
2022-08-07T10:30:28.139Z,1.80
2022-08-07T10:33:08.527Z,1.73
2022-08-07T10:36:18.271Z,2.00
2022-08-07T10:39:19.413Z,2.22
2022-08-07T10:42:01.635Z,2.10
2022-08-07T10:44:51.726Z,2.08
2022-08-07T10:47:53.241Z,2.17
2022-08-07T10:50:44.791Z,2.10
2022-08-07T10:53:44.848Z,2.10
2022-08-07T10:56:31.646Z,1.98
2022-08-07T10:59:15.633Z,2.80
2022-08-07T11:02:33.562Z,2.40
2022-08-07T11:05:35.942Z,2.12
2022-08-07T11:08:22.467Z,2.40
2022-08-07T11:11:20.926Z,2.20
2022-08-07T11:14:44.103Z,2.30
2022-08-07T11:17:07.419Z,2.50
2022-08-07T11:19:53.570Z,2.40
2022-08-07T11:25:19.787Z,2.37
2022-08-07T11:28:27.844Z,2.40
2022-08-07T11:31:11.457Z,2.55
2022-08-07T11:33:58.593Z,3.40
2022-08-07T11:36:38.834Z,2.50
2022-08-07T11:39:58.994Z,2.47
2022-08-07T11:42:29.946Z,2.83
2022-08-07T11:45:07.654Z,2.60
2022-08-07T11:47:58.845Z,2.65
2022-08-07T11:50:35.574Z,2.97
2022-08-07T11:53:35.264Z,2.75
2022-08-07T11:56:28.408Z,2.80
2022-08-07T11:58:58.907Z,2.83
2022-08-07T12:02:21.038Z,2.97
2022-08-07T12:05:28.826Z,2.75
2022-08-07T12:08:31.806Z,2.22
2022-08-07T12:11:21.088Z,2.92
2022-08-07T12:14:05.307Z,2.80
2022-08-07T12:16:36.840Z,3.28
2022-08-07T12:19:21.412Z,2.92
2022-08-07T12:22:37.310Z,3.00
2022-08-07T12:26:03.499Z,2.72
2022-08-07T12:28:34.683Z,2.90
2022-08-07T12:31:11.010Z,2.87
2022-08-07T12:34:00.759Z,2.80
2022-08-07T12:36:33.049Z,3.00
2022-08-07T12:39:42.031Z,2.75
2022-08-07T12:41:52.663Z,2.85
2022-08-07T12:44:24.568Z,3.30
2022-08-07T12:47:06.337Z,2.92
2022-08-07T12:49:48.847Z,2.72
2022-08-07T12:52:41.766Z,2.85
2022-08-07T12:55:40.615Z,2.97
2022-08-07T12:58:13.237Z,2.75
2022-08-07T13:01:00.213Z,2.92
2022-08-07T13:04:02.431Z,2.97
2022-08-07T13:06:27.858Z,2.97
2022-08-07T13:10:20.427Z,2.45
2022-08-07T13:12:28.763Z,3.03
2022-08-07T13:15:32.563Z,3.37
2022-08-07T13:18:31.792Z,3.15
2022-08-07T13:21:37.774Z,3.15
2022-08-07T13:24:29.440Z,2.80
2022-08-07T13:27:10.344Z,3.87
2022-08-07T13:29:56.941Z,2.70
2022-08-07T13:32:32.850Z,2.80
2022-08-07T13:36:00.448Z,2.87
2022-08-07T13:38:23.873Z,3.00
2022-08-07T13:41:22.592Z,3.45
2022-08-07T13:43:52.810Z,2.90
2022-08-07T13:46:32.884Z,3.17
2022-08-07T13:49:02.196Z,3.62
2022-08-07T13:52:22.634Z,3.15
2022-08-07T13:54:22.509Z,3.37
2022-08-07T13:56:55.847Z,3.00
2022-08-07T13:59:32.352Z,2.90
2022-08-07T14:02:08.684Z,3.25
2022-08-07T14:04:49.592Z,3.20
2022-08-07T14:07:28.713Z,3.20
2022-08-07T14:10:17.623Z,2.70
2022-08-07T14:12:57.431Z,2.97
2022-08-07T14:15:31.895Z,2.12
2022-08-07T14:18:27.531Z,3.20
2022-08-07T14:22:02.283Z,2.95
2022-08-07T14:24:36.680Z,3.03
2022-08-07T14:28:09.711Z,2.92
2022-08-07T14:30:10.982Z,2.65
2022-08-07T14:32:55.887Z,3.05
2022-08-07T14:35:43.387Z,2.40
2022-08-07T14:38:30.813Z,3.08
2022-08-07T14:41:05.398Z,2.55
2022-08-07T14:43:57.179Z,2.80
2022-08-07T14:46:31.516Z,3.20
2022-08-07T14:49:17.461Z,3.15
2022-08-07T14:52:04.865Z,2.60
2022-08-07T14:54:41.984Z,3.15
2022-08-07T14:57:19.227Z,2.65
2022-08-07T15:00:06.955Z,3.30
2022-08-07T15:02:37.334Z,2.80
2022-08-07T15:05:20.068Z,3.33
2022-08-07T15:07:51.155Z,2.72
2022-08-07T15:10:26.089Z,2.65
2022-08-07T15:13:00.184Z,2.67
2022-08-07T15:18:36.212Z,3.20
2022-08-07T15:21:44.407Z,3.20
2022-08-07T15:27:22.094Z,3.25
2022-08-07T15:30:16.888Z,2.90
2022-08-07T15:33:01.376Z,2.87
2022-08-07T15:36:00.760Z,2.90
2022-08-07T15:42:44.857Z,3.37
2022-08-07T15:44:15.074Z,3.42
2022-08-07T15:46:49.980Z,2.78
2022-08-07T15:50:05.175Z,2.97
2022-08-07T15:52:21.903Z,3.10
2022-08-07T15:55:02.305Z,3.17
2022-08-07T15:57:48.172Z,3.12
2022-08-07T16:00:31.133Z,3.12
2022-08-07T16:03:21.825Z,3.17
2022-08-07T16:06:05.825Z,3.28
2022-08-07T16:08:38.717Z,3.12
2022-08-07T16:11:17.431Z,3.47
2022-08-07T16:14:20.587Z,3.08
2022-08-07T16:16:56.711Z,2.80
2022-08-07T16:19:58.841Z,2.72
2022-08-07T16:22:54.927Z,3.03
2022-08-07T16:25:54.324Z,3.47
2022-08-07T16:30:06.257Z,3.05
2022-08-07T16:31:51.668Z,2.97
2022-08-07T16:34:48.097Z,2.90
2022-08-07T16:38:06.628Z,3.15
2022-08-07T16:40:35.208Z,2.58
2022-08-07T16:43:21.843Z,3.08
2022-08-07T16:47:06.730Z,2.80
2022-08-07T16:50:27.837Z,3.00
2022-08-07T16:53:02.415Z,2.83
2022-08-07T16:55:50.497Z,2.72
2022-08-07T16:59:11.385Z,2.67
2022-08-07T17:01:49.841Z,2.95
2022-08-07T17:04:27.738Z,3.45
2022-08-07T17:07:13.488Z,2.30
2022-08-07T17:10:07.970Z,2.87
2022-08-07T17:12:44.583Z,3.03
2022-08-07T17:15:15.673Z,3.05
2022-08-07T17:17:49.085Z,2.80
2022-08-07T17:20:30.104Z,3.30
2022-08-07T17:23:11.549Z,2.90
2022-08-07T17:25:58.854Z,3.40
2022-08-07T17:28:55.566Z,3.33
2022-08-07T17:31:25.416Z,3.15
2022-08-07T17:34:15.333Z,3.20
2022-08-07T17:37:08.937Z,3.17
2022-08-07T17:40:13.479Z,3.12
2022-08-07T17:42:59.143Z,3.33
2022-08-07T17:45:40.181Z,3.08
2022-08-07T17:48:30.756Z,2.97
2022-08-07T17:51:04.790Z,3.70
2022-08-07T17:54:01.516Z,4.25
2022-08-07T17:56:33.164Z,4.50
2022-08-07T17:59:35.674Z,4.43
2022-08-07T18:02:29.286Z,4.87
2022-08-07T18:05:20.598Z,5.43
2022-08-07T18:08:24.483Z,5.05
2022-08-07T18:11:53.552Z,5.10
2022-08-07T18:14:16.678Z,5.85
2022-08-07T18:16:58.203Z,5.82
2022-08-07T18:21:04.366Z,6.47
2022-08-07T18:22:30.541Z,5.03
2022-08-07T18:25:23.780Z,4.87
2022-08-07T18:28:34.219Z,3.47
2022-08-07T18:31:07.457Z,3.70
2022-08-07T18:33:55.446Z,3.05
2022-08-07T18:36:38.591Z,3.65
2022-08-07T18:40:08.770Z,3.45
2022-08-07T18:42:37.375Z,2.90
2022-08-07T18:45:44.874Z,2.83
2022-08-07T18:50:47.357Z,2.75
2022-08-07T18:53:36.526Z,2.80
2022-08-07T18:56:30.710Z,2.60
2022-08-07T18:59:47.276Z,2.75
2022-08-07T19:02:55.545Z,2.97
2022-08-07T19:05:27.890Z,2.50
2022-08-07T19:08:27.389Z,2.42
2022-08-07T19:11:02.552Z,2.45
2022-08-07T19:13:52.621Z,2.50
2022-08-07T19:16:43.701Z,2.37
2022-08-07T19:20:07.093Z,2.55
2022-08-07T19:23:01.961Z,2.00
2022-08-07T19:26:23.262Z,2.08
2022-08-07T19:30:57.802Z,1.98
2022-08-07T19:32:10.832Z,1.75
2022-08-07T19:34:34.363Z,1.60
2022-08-07T19:37:17.270Z,2.03
2022-08-07T19:39:56.816Z,1.65
2022-08-07T19:42:26.808Z,1.62
2022-08-07T19:45:00.731Z,1.73
2022-08-07T19:47:38.662Z,1.60
2022-08-07T19:50:41.162Z,1.73
2022-08-07T19:52:58.369Z,1.65
2022-08-07T19:55:46.807Z,1.80
2022-08-07T19:58:22.154Z,1.83
2022-08-07T20:00:57.414Z,1.62
2022-08-07T20:03:33.741Z,1.90
2022-08-07T20:06:04.556Z,1.83
2022-08-07T20:08:36.830Z,1.73
2022-08-07T20:11:12.274Z,1.58
2022-08-07T20:13:47.955Z,1.70
2022-08-07T20:16:34.801Z,1.48
2022-08-07T20:19:10.340Z,1.30
2022-08-07T20:21:41.679Z,1.60
2022-08-07T20:24:28.926Z,1.77
2022-08-07T20:27:03.487Z,1.58
2022-08-07T20:29:49.268Z,1.50
2022-08-07T20:32:26.707Z,1.30
2022-08-07T20:35:26.243Z,1.30
2022-08-07T20:37:58.282Z,1.12
2022-08-07T20:40:34.758Z,1.77
2022-08-07T20:43:14.430Z,1.42
2022-08-07T20:46:28.293Z,1.75
2022-08-07T20:48:34.615Z,4.15
2022-08-07T20:51:09.550Z,3.37
2022-08-07T20:54:02.212Z,3.22
2022-08-07T20:56:29.206Z,2.30
2022-08-07T20:59:01.757Z,1.85
2022-08-07T21:01:45.535Z,1.45
2022-08-07T21:04:22.550Z,1.62
2022-08-07T21:06:55.326Z,1.65
2022-08-07T21:09:30.494Z,1.70
2022-08-07T21:12:25.669Z,1.52
2022-08-07T21:14:56.573Z,1.37
2022-08-07T21:18:20.296Z,1.30
2022-08-07T21:20:26.846Z,1.70
2022-08-07T21:22:58.456Z,1.50
2022-08-07T21:25:44.774Z,1.90
2022-08-07T21:28:48.786Z,1.73
2022-08-07T21:31:49.877Z,1.50
2022-08-07T21:35:02.389Z,1.50
2022-08-07T21:37:58.864Z,1.30
2022-08-07T21:40:38.084Z,1.55
2022-08-07T21:43:10.830Z,1.40
2022-08-07T21:46:07.959Z,1.27
2022-08-07T21:48:55.719Z,1.62
2022-08-07T21:51:54.557Z,1.50
2022-08-07T21:54:27.986Z,1.30
2022-08-07T21:57:40.127Z,1.40
2022-08-07T22:00:22.977Z,1.33
2022-08-07T22:02:55.095Z,1.23
2022-08-07T22:05:45.807Z,1.17
2022-08-07T22:08:14.599Z,1.60
2022-08-07T22:10:50.205Z,1.58
2022-08-07T22:13:24.167Z,1.20
2022-08-07T22:16:40.235Z,1.40
2022-08-07T22:19:08.842Z,1.60
2022-08-07T22:22:05.023Z,1.35
2022-08-07T22:24:57.427Z,1.20
2022-08-07T22:28:07.391Z,1.30
2022-08-07T22:30:35.085Z,1.48
2022-08-07T22:33:07.486Z,1.20
2022-08-07T22:36:02.477Z,0.98
2022-08-07T22:38:47.859Z,1.20
2022-08-07T22:42:10.408Z,1.23
2022-08-07T22:44:25.095Z,1.92
2022-08-07T22:47:04.359Z,1.30
2022-08-07T22:49:54.098Z,1.70
2022-08-07T22:52:56.240Z,1.10
2022-08-07T22:55:33.982Z,1.45
2022-08-07T22:58:31.564Z,1.37
2022-08-07T23:01:06.324Z,1.20
2022-08-07T23:03:58.240Z,1.40
2022-08-07T23:06:56.262Z,1.40
2022-08-07T23:10:05.453Z,1.33
2022-08-07T23:12:53.193Z,1.50
2022-08-07T23:16:05.460Z,1.27
2022-08-07T23:18:42.506Z,1.40
2022-08-07T23:21:16.212Z,1.23
2022-08-07T23:24:04.219Z,1.30
2022-08-07T23:27:01.214Z,1.10
2022-08-07T23:30:35.524Z,1.20
2022-08-07T23:34:36.480Z,1.30
2022-08-07T23:36:17.331Z,1.20
2022-08-07T23:39:04.845Z,1.25
2022-08-07T23:42:04.527Z,1.25
2022-08-07T23:44:54.104Z,1.58
2022-08-07T23:48:01.688Z,1.23
2022-08-07T23:50:47.076Z,1.20
2022-08-07T23:53:49.942Z,1.15
2022-08-07T23:56:31.189Z,1.40
